Time;durP1;ratioP1;P1;durP2;ratioP2;P2;SDS_P1;SDS_P2;PMS_P1;PMS_P2;Temp;Humidity;BMP_temperature;BMP_pressure;BME280_temperature;BME280_humidity;BME280_pressure;Samples;Min_cycle;Max_cycle;Signal;HPM_P1;HPM_P2
2022/11/11 00:00:34;;;;;;;31.33;19.30;;;13.30;99.90;;;;;;5030125;28;20075;-49
2022/11/11 00:03:00;;;;;;;34.38;19.75;;;13.30;99.90;;;;;;5031582;28;20052;-50
2022/11/11 00:05:27;;;;;;;31.58;19.05;;;13.30;99.90;;;;;;5031771;28;20052;-50
2022/11/11 00:07:58;;;;;;;31.20;20.23;;;13.30;99.90;;;;;;5027100;28;20030;-49
2022/11/11 00:10:30;;;;;;;26.23;16.77;;;13.30;99.90;;;;;;5027723;28;20060;-49
2022/11/11 00:13:04;;;;;;;24.05;16.92;;;13.10;99.90;;;;;;5027550;28;20034;-49
2022/11/11 00:15:30;;;;;;;29.70;17.77;;;13.10;99.90;;;;;;5028266;28;20124;-50
2022/11/11 00:26:14;;;;;;;29.52;19.50;;;13.20;99.90;;;;;;5027865;28;20152;-49
2022/11/11 00:28:40;;;;;;;20.40;12.70;;;13.20;99.90;;;;;;5028047;28;20477;-49
2022/11/11 00:31:11;;;;;;;26.40;17.23;;;13.10;99.90;;;;;;5028993;28;20029;-50
2022/11/11 00:33:37;;;;;;;19.70;13.35;;;13.10;99.90;;;;;;5031670;28;20053;-50
2022/11/11 00:36:05;;;;;;;22.90;14.07;;;12.90;99.90;;;;;;5037510;28;20061;-50
2022/11/11 00:38:46;;;;;;;22.90;15.10;;;12.90;99.90;;;;;;5047033;28;20087;-50
2022/11/11 00:41:14;;;;;;;24.40;17.00;;;12.60;99.90;;;;;;5032167;28;20498;-49
2022/11/11 00:43:40;;;;;;;25.48;17.10;;;12.90;99.90;;;;;;5028396;28;20083;-49
2022/11/11 00:51:35;;;;;;;22.58;12.90;;;13.00;99.90;;;;;;5031176;28;20084;-49
2022/11/11 00:54:01;;;;;;;23.75;15.88;;;12.90;99.90;;;;;;5027331;28;20033;-48
2022/11/11 00:56:27;;;;;;;25.70;18.17;;;13.10;99.90;;;;;;5035933;28;20120;-50
2022/11/11 00:58:52;;;;;;;23.95;15.88;;;12.80;99.90;;;;;;5031726;28;20030;-50
2022/11/11 01:01:18;;;;;;;22.85;15.85;;;13.10;99.90;;;;;;5030167;28;20484;-50
2022/11/11 01:03:44;;;;;;;26.33;17.88;;;12.70;99.90;;;;;;5032709;28;20042;-50
2022/11/11 01:06:13;;;;;;;24.77;15.65;;;12.80;99.90;;;;;;5033791;28;20488;-50
2022/11/11 01:08:39;;;;;;;26.50;17.42;;;12.80;99.90;;;;;;5026406;28;20030;-50
2022/11/11 01:11:16;;;;;;;24.20;16.15;;;12.80;99.90;;;;;;5034715;28;20039;-50
2022/11/11 01:13:42;;;;;;;23.02;15.13;;;12.80;99.90;;;;;;5029531;28;20033;-50
2022/11/11 01:16:12;;;;;;;25.13;17.35;;;12.80;99.90;;;;;;5034297;28;20030;-50
2022/11/11 01:18:38;;;;;;;26.48;16.63;;;12.80;99.90;;;;;;5030281;28;20030;-50
2022/11/11 01:21:12;;;;;;;21.27;13.30;;;12.80;99.90;;;;;;5027736;28;20480;-50
2022/11/11 01:23:39;;;;;;;21.63;13.30;;;12.70;99.90;;;;;;5029239;28;20045;-50
2022/11/11 01:26:11;;;;;;;25.42;17.75;;;12.70;99.90;;;;;;5033488;28;20037;-50
2022/11/11 01:28:37;;;;;;;26.02;16.77;;;12.70;99.90;;;;;;5032474;28;20037;-51
2022/11/11 01:31:08;;;;;;;24.85;14.18;;;12.70;99.90;;;;;;5022232;28;20061;-50
2022/11/11 01:33:34;;;;;;;23.65;15.57;;;12.70;99.90;;;;;;5031533;28;20068;-51
2022/11/11 01:36:06;;;;;;;23.23;15.68;;;12.50;99.90;;;;;;5034155;28;20037;-51
2022/11/11 01:38:32;;;;;;;23.63;16.67;;;12.60;99.90;;;;;;5061626;28;20088;-50
2022/11/11 01:40:58;;;;;;;21.55;14.60;;;12.60;99.90;;;;;;5030509;28;20437;-51
2022/11/11 01:43:24;;;;;;;22.00;14.18;;;12.50;99.90;;;;;;5034353;28;20029;-51
2022/11/11 01:45:50;;;;;;;26.58;16.75;;;12.50;99.90;;;;;;5030965;28;20126;-50
2022/11/11 01:51:33;;;;;;;22.85;15.52;;;12.60;99.90;;;;;;5028621;28;20048;-50
2022/11/11 01:54:01;;;;;;;;;;;12.60;99.90;;;;;;5034698;28;20516;-50
2022/11/11 01:56:27;;;;;;;23.40;16.65;;;12.50;99.90;;;;;;5032815;28;19916;-50
2022/11/11 01:58:57;;;;;;;22.35;14.98;;;12.70;99.90;;;;;;5031212;28;20033;-51
2022/11/11 02:01:22;;;;;;;20.80;11.98;;;12.70;99.90;;;;;;5025599;28;20428;-51
2022/11/11 02:06:38;;;;;;;26.20;16.52;;;12.50;99.90;;;;;;5028653;28;20496;-50
2022/11/11 02:09:06;;;;;;;27.45;16.40;;;12.40;99.90;;;;;;5030782;28;20025;-50
2022/11/11 02:14:38;;;;;;;26.48;16.95;;;12.40;99.90;;;;;;5032946;28;20048;-52
2022/11/11 02:17:07;;;;;;;24.55;16.73;;;12.40;99.90;;;;;;5024895;28;20737;-49
2022/11/11 02:19:59;;;;;;;24.58;15.40;;;12.20;99.90;;;;;;5042422;28;20038;-50
2022/11/11 02:22:57;;;;;;;24.80;16.63;;;12.30;99.90;;;;;;5031773;28;20542;-50
2022/11/11 02:25:26;;;;;;;21.98;15.90;;;12.10;99.90;;;;;;4988329;28;20042;-51
2022/11/11 02:27:56;;;;;;;24.75;16.08;;;12.60;99.90;;;;;;4991324;28;20475;-50
2022/11/11 02:30:22;;;;;;;27.90;17.02;;;12.30;99.90;;;;;;4985307;28;20129;-49
2022/11/11 02:32:50;;;;;;;23.77;15.38;;;12.20;99.90;;;;;;4944688;28;20138;-51
2022/11/11 02:35:21;;;;;;;26.15;14.38;;;12.20;99.90;;;;;;4965799;28;20461;-49
2022/11/11 02:37:53;;;;;;;26.52;18.08;;;12.20;99.90;;;;;;4984093;28;20513;-49
2022/11/11 02:40:27;;;;;;;26.25;15.55;;;12.20;99.90;;;;;;4988146;28;20169;-49
2022/11/11 02:42:53;;;;;;;31.02;17.95;;;12.20;99.90;;;;;;4976842;28;20133;-50
2022/11/11 02:45:19;;;;;;;22.45;15.10;;;12.10;99.90;;;;;;4989696;28;20037;-49
2022/11/11 02:47:45;;;;;;;22.00;16.95;;;12.10;99.90;;;;;;4989857;28;20034;-50
2022/11/11 02:50:11;;;;;;;21.88;14.27;;;12.00;99.90;;;;;;4990758;28;20613;-50
2022/11/11 02:52:37;;;;;;;26.00;17.38;;;11.90;99.90;;;;;;4986544;28;20490;-50
2022/11/11 02:55:03;;;;;;;26.60;16.75;;;11.80;99.90;;;;;;4955786;28;20498;-50
2022/11/11 02:57:29;;;;;;;27.83;17.42;;;11.90;99.90;;;;;;4987384;28;20030;-50
2022/11/11 02:59:57;;;;;;;27.08;17.35;;;11.80;99.90;;;;;;4984171;28;20026;-51
2022/11/11 03:02:26;;;;;;;26.63;17.70;;;11.80;99.90;;;;;;5021541;28;20034;-50
2022/11/11 03:04:53;;;;;;;27.75;16.83;;;11.80;99.90;;;;;;5040611;28;20153;-49
2022/11/11 03:07:19;;;;;;;27.67;18.15;;;11.80;99.90;;;;;;5031495;28;20033;-50
2022/11/11 03:09:44;;;;;;;30.02;18.98;;;11.80;99.90;;;;;;5032277;28;20065;-49
2022/11/11 03:12:10;;;;;;;23.50;15.43;;;11.80;99.90;;;;;;5031018;28;20065;-49
2022/11/11 03:14:36;;;;;;;30.38;18.60;;;11.70;99.90;;;;;;5029613;28;20045;-50
2022/11/11 03:19:46;;;;;;;23.65;16.95;;;11.50;99.90;;;;;;5027336;28;20036;-50
2022/11/11 03:22:11;;;;;;;31.23;18.63;;;11.50;99.90;;;;;;5027194;28;20026;-50
2022/11/11 03:27:22;;;;;;;25.83;17.95;;;11.40;99.90;;;;;;5029770;28;20029;-50
2022/11/11 03:29:47;;;;;;;28.80;18.02;;;11.50;99.90;;;;;;5030053;28;20029;-49
2022/11/11 03:32:13;;;;;;;30.98;19.13;;;11.50;99.90;;;;;;5027797;28;20021;-49
2022/11/11 03:34:39;;;;;;;30.17;18.70;;;11.50;99.90;;;;;;5031818;28;20041;-50
2022/11/11 03:39:51;;;;;;;31.20;19.73;;;11.40;99.90;;;;;;5031595;28;20036;-50
2022/11/11 03:42:16;;;;;;;28.27;17.52;;;11.40;99.90;;;;;;5025660;28;20022;-50
2022/11/11 03:44:42;;;;;;;29.35;18.60;;;11.40;99.90;;;;;;5030470;28;20029;-50
2022/11/11 03:47:08;;;;;;;33.10;18.98;;;11.40;99.90;;;;;;5057566;28;20512;-50
2022/11/11 03:49:34;;;;;;;27.70;17.75;;;11.30;99.90;;;;;;5047054;28;20033;-49
2022/11/11 03:51:59;;;;;;;26.83;17.70;;;11.30;99.90;;;;;;5029756;28;20049;-49
2022/11/11 03:54:25;;;;;;;33.65;17.05;;;11.40;99.90;;;;;;5027079;28;20515;-50
2022/11/11 03:56:51;;;;;;;27.45;18.38;;;11.40;99.90;;;;;;5031781;28;20030;-49
2022/11/11 03:59:16;;;;;;;27.02;18.33;;;11.40;99.90;;;;;;5024863;28;20109;-49
2022/11/11 04:18:09;;;;;;;25.45;17.45;;;11.50;99.90;;;;;;5033529;28;20045;-50
2022/11/11 04:23:19;;;;;;;24.27;16.73;;;11.60;99.90;;;;;;5029734;28;20075;-49
2022/11/11 04:25:47;;;;;;;26.73;17.60;;;11.50;99.90;;;;;;5022979;28;20120;-49
2022/11/11 04:30:57;;;;;;;26.77;17.73;;;11.40;99.90;;;;;;5031176;28;20530;-49
2022/11/11 04:33:23;;;;;;;24.40;17.40;;;11.60;99.90;;;;;;5034224;28;20025;-49
2022/11/11 04:35:49;;;;;;;28.08;18.52;;;11.40;99.90;;;;;;5030935;28;20075;-50
2022/11/11 04:41:02;;;;;;;29.58;18.10;;;11.60;99.90;;;;;;5032532;28;20583;-49
2022/11/11 04:43:29;;;;;;;33.95;20.75;;;11.60;99.90;;;;;;5034869;28;20125;-49
2022/11/11 04:45:59;;;;;;;31.02;18.63;;;11.50;99.90;;;;;;5046408;28;20034;-49
2022/11/11 04:48:24;;;;;;;25.58;16.85;;;11.50;99.90;;;;;;5033627;28;20071;-49
2022/11/11 04:50:50;;;;;;;27.35;18.27;;;11.50;99.90;;;;;;5000317;28;20081;-49
2022/11/11 04:53:16;;;;;;;26.77;16.92;;;11.30;99.90;;;;;;5030796;28;20022;-49
2022/11/11 04:58:30;;;;;;;25.40;15.60;;;11.30;99.90;;;;;;5032891;28;20079;-49
2022/11/11 05:00:57;;;;;;;25.30;16.33;;;11.40;99.90;;;;;;5026951;28;20120;-50
2022/11/11 05:03:23;;;;;;;26.67;16.65;;;11.40;99.90;;;;;;5031547;28;20072;-50
2022/11/11 05:08:56;;;;;;;23.95;14.43;;;11.40;99.90;;;;;;5034349;28;20451;-49
2022/11/11 05:11:23;;;;;;;22.00;14.57;;;;;;;;;;5031439;28;20036;-49
2022/11/11 05:22:15;;;;;;;24.05;15.45;;;11.40;99.90;;;;;;5026794;28;20032;-49
2022/11/11 05:27:26;;;;;;;23.35;15.55;;;11.00;99.90;;;;;;5028849;28;20547;-49
2022/11/11 05:29:52;;;;;;;23.00;13.93;;;;;;;;;;5031573;28;20516;-49
2022/11/11 05:32:19;;;;;;;20.77;14.68;;;11.10;99.90;;;;;;5013981;28;20087;-49
2022/11/11 05:34:45;;;;;;;24.90;16.05;;;11.10;99.90;;;;;;5032289;28;20022;-49
2022/11/11 05:37:12;;;;;;;22.90;15.15;;;11.10;99.90;;;;;;5034695;28;20040;-49
2022/11/11 05:39:38;;;;;;;22.77;15.93;;;11.70;99.90;;;;;;5029933;28;20026;-50
2022/11/11 05:42:03;;;;;;;23.13;15.23;;;11.90;99.90;;;;;;5062000;28;20114;-50
2022/11/11 05:44:29;;;;;;;25.95;15.50;;;;;;;;;;5030926;28;20014;-50
2022/11/11 05:46:55;;;;;;;23.38;16.13;;;11.60;99.90;;;;;;5031160;28;20040;-50
2022/11/11 05:49:22;;;;;;;23.45;16.27;;;11.30;99.90;;;;;;5031504;28;20038;-50
2022/11/11 05:51:48;;;;;;;24.92;16.15;;;11.70;99.90;;;;;;5031170;28;20462;-50
2022/11/11 05:54:14;;;;;;;22.75;14.25;;;11.40;99.90;;;;;;5029577;28;20116;-50
2022/11/11 05:56:40;;;;;;;22.38;15.07;;;11.40;99.90;;;;;;5044890;28;20044;-50
2022/11/11 05:59:06;;;;;;;23.95;15.88;;;11.50;99.90;;;;;;5032873;28;20378;-50
2022/11/11 06:01:33;;;;;;;23.35;16.77;;;11.60;99.90;;;;;;5032414;28;20018;-49
2022/11/11 06:03:59;;;;;;;21.98;14.20;;;11.60;99.90;;;;;;5031960;28;20583;-49
2022/11/11 06:06:24;;;;;;;20.70;15.23;;;11.40;99.90;;;;;;5032266;28;20030;-51
2022/11/11 06:08:50;;;;;;;26.77;15.82;;;11.30;99.90;;;;;;5030029;28;20045;-49
2022/11/11 06:11:16;;;;;;;25.02;17.40;;;11.30;99.90;;;;;;5030073;28;20038;-49
2022/11/11 06:13:42;;;;;;;23.17;15.40;;;11.50;99.90;;;;;;5029179;28;20026;-54
2022/11/11 06:16:08;;;;;;;24.38;17.42;;;11.60;99.90;;;;;;5028574;28;20112;-54
2022/11/11 06:18:34;;;;;;;25.17;18.45;;;11.60;99.90;;;;;;5024885;28;20030;-49
2022/11/11 06:21:00;;;;;;;25.08;17.42;;;11.60;99.90;;;;;;5024243;28;20037;-51
2022/11/11 06:23:27;;;;;;;22.52;14.73;;;11.70;99.90;;;;;;5025737;28;20526;-54
2022/11/11 06:26:12;;;;;;;21.98;14.82;;;11.60;99.90;;;;;;5022444;28;20038;-53
2022/11/11 06:28:48;;;;;;;25.35;15.73;;;11.50;99.90;;;;;;5044614;28;20038;-54
2022/11/11 06:31:17;;;;;;;22.10;15.55;;;11.70;99.90;;;;;;5023617;28;20025;-54
2022/11/11 06:33:43;;;;;;;25.27;16.48;;;11.70;99.90;;;;;;5016480;28;20045;-52
2022/11/11 06:36:12;;;;;;;26.98;15.50;;;11.70;99.90;;;;;;5031243;28;20083;-53
2022/11/11 06:38:40;;;;;;;24.10;15.90;;;11.90;99.90;;;;;;5029244;28;20030;-53
2022/11/11 06:41:07;;;;;;;25.85;15.18;;;11.80;99.90;;;;;;5019430;28;20032;-53
2022/11/11 06:43:33;;;;;;;23.73;15.25;;;11.90;99.90;;;;;;5025127;28;20021;-53
2022/11/11 06:45:59;;;;;;;29.85;17.27;;;11.90;99.90;;;;;;5027439;28;20103;-53
2022/11/11 06:48:26;;;;;;;24.40;14.82;;;12.00;99.90;;;;;;5044037;28;20035;-52
2022/11/11 06:50:53;;;;;;;22.73;15.50;;;12.10;99.90;;;;;;5030976;28;20109;-53
2022/11/11 06:53:20;;;;;;;24.08;16.25;;;12.10;99.90;;;;;;5028482;28;20042;-53
2022/11/11 06:55:46;;;;;;;24.70;18.15;;;12.10;99.90;;;;;;5029928;28;20485;-53
2022/11/11 06:58:17;;;;;;;22.63;14.80;;;13.40;99.90;;;;;;5029210;28;20033;-52
2022/11/11 07:00:44;;;;;;;19.73;13.57;;;14.10;99.90;;;;;;5035353;28;20041;-52
2022/11/11 07:03:16;;;;;;;23.75;15.88;;;14.40;99.90;;;;;;5029403;28;20048;-53
2022/11/11 07:05:42;;;;;;;22.00;15.65;;;14.10;99.90;;;;;;5029198;28;20033;-54
2022/11/11 07:08:14;;;;;;;21.77;14.77;;;15.00;99.90;;;;;;5029324;28;20029;-53
2022/11/11 07:10:43;;;;;;;24.42;15.85;;;15.00;99.90;;;;;;5034082;28;20029;-54
2022/11/11 07:13:09;;;;;;;24.40;15.32;;;14.50;99.90;;;;;;5027210;28;20454;-53
2022/11/11 07:15:36;;;;;;;19.92;15.25;;;14.00;99.90;;;;;;5031358;28;20546;-53
2022/11/11 07:18:02;;;;;;;18.48;14.00;;;14.40;99.90;;;;;;5029536;28;20072;-53
2022/11/11 07:20:29;;;;;;;22.20;14.07;;;14.10;99.90;;;;;;5022218;28;20029;-54
2022/11/11 07:22:54;;;;;;;21.10;15.63;;;13.70;99.90;;;;;;5028966;28;20373;-54
2022/11/11 07:25:20;;;;;;;21.92;15.35;;;13.40;99.90;;;;;;5027199;28;20141;-53
2022/11/11 07:27:46;;;;;;;21.75;15.82;;;;;;;;;;5030104;28;20030;-54
2022/11/11 07:30:12;;;;;;;20.73;15.18;;;13.20;99.90;;;;;;5027457;28;20361;-53
2022/11/11 07:32:49;;;;;;;17.25;11.20;;;13.00;99.90;;;;;;5025893;28;20041;-53
2022/11/11 07:35:16;;;;;;;19.10;13.65;;;12.80;99.90;;;;;;5028217;28;20045;-53
2022/11/11 07:37:43;;;;;;;22.33;15.05;;;12.70;99.90;;;;;;5019428;28;20045;-53
2022/11/11 07:40:10;;;;;;;23.35;15.88;;;12.70;99.90;;;;;;5022135;28;20037;-54
2022/11/11 07:42:37;;;;;;;119.35;74.57;;;12.80;99.90;;;;;;5023241;28;20079;-53
2022/11/11 07:45:04;;;;;;;44.35;29.13;;;13.20;99.90;;;;;;5019263;28;20022;-55
2022/11/11 07:47:30;;;;;;;17.95;13.63;;;13.90;99.90;;;;;;5024827;28;20076;-54
2022/11/11 07:49:56;;;;;;;24.17;20.17;;;14.60;99.90;;;;;;5000599;28;20045;-54
2022/11/11 07:52:22;;;;;;;28.40;20.85;;;14.70;99.90;;;;;;5025013;28;20084;-53
2022/11/11 07:54:49;;;;;;;21.40;16.08;;;14.90;99.90;;;;;;5020907;28;20085;-54
2022/11/11 07:57:15;;;;;;;22.20;15.25;;;14.90;99.90;;;;;;5028014;28;20554;-53
2022/11/11 07:59:41;;;;;;;16.90;13.77;;;15.70;99.90;;;;;;5009592;28;20144;-53
2022/11/11 08:02:10;;;;;;;20.05;13.98;;;15.60;99.90;;;;;;4977925;28;20125;-55
2022/11/11 08:04:36;;;;;;;18.70;11.90;;;15.10;99.90;;;;;;5024321;28;20057;-54
2022/11/11 08:07:03;;;;;;;17.75;14.02;;;14.70;99.90;;;;;;5012490;28;20046;-52
2022/11/11 08:09:29;;;;;;;20.05;14.63;;;14.50;99.90;;;;;;5011783;28;20046;-54
2022/11/11 08:14:39;;;;;;;19.75;14.30;;;14.80;99.90;;;;;;5008396;28;20049;-54
2022/11/11 08:17:05;;;;;;;21.45;12.40;;;16.50;99.90;;;;;;5009329;28;20026;-53
2022/11/11 08:19:30;;;;;;;15.98;12.35;;;16.30;99.90;;;;;;5009291;28;20025;-53
2022/11/11 08:21:56;;;;;;;18.25;14.52;;;17.80;99.90;;;;;;5010680;28;20076;-54
2022/11/11 08:24:22;;;;;;;17.50;13.32;;;18.80;99.90;;;;;;5010915;28;20022;-52
2022/11/11 08:26:48;;;;;;;18.23;12.77;;;19.20;99.90;;;;;;5007407;28;20053;-54
2022/11/11 08:29:14;;;;;;;16.98;13.48;;;20.20;99.90;;;;;;5008649;28;20021;-56
2022/11/11 08:31:40;;;;;;;19.58;13.65;;;;;;;;;;5026027;28;20053;-54
2022/11/11 08:34:06;;;;;;;18.65;13.30;;;21.00;99.90;;;;;;5003575;28;20037;-52
2022/11/11 08:36:32;;;;;;;19.35;14.18;;;20.70;99.90;;;;;;5019180;28;20056;-52
2022/11/11 08:38:58;;;;;;;16.30;13.57;;;;;;;;;;5010067;28;20374;-54
2022/11/11 08:41:24;;;;;;;19.17;14.10;;;;;;;;;;5005095;28;20034;-49
2022/11/11 08:43:52;;;;;;;17.38;14.73;;;;;;;;;;5025290;28;20129;-50
2022/11/11 08:46:18;;;;;;;18.60;13.85;;;;;;;;;;4999540;28;20117;-52
2022/11/11 08:48:44;;;;;;;19.15;14.82;;;23.90;99.90;;;;;;5009054;28;20034;-50
2022/11/11 08:51:10;;;;;;;21.45;16.00;;;23.80;98.80;;;;;;5002046;28;20467;-50
2022/11/11 08:53:36;;;;;;;17.00;15.20;;;23.40;98.20;;;;;;5006536;28;20081;-50
2022/11/11 08:56:03;;;;;;;19.80;15.75;;;23.60;98.20;;;;;;5033657;28;20041;-50
2022/11/11 08:58:29;;;;;;;18.02;14.73;;;;;;;;;;5020732;28;20085;-50
2022/11/11 09:00:55;;;;;;;15.80;12.93;;;;;;;;;;5012394;28;20021;-50
2022/11/11 09:03:21;;;;;;;17.55;12.38;;;24.90;99.90;;;;;;5005189;28;20046;-51
2022/11/11 09:05:47;;;;;;;13.90;12.38;;;24.20;99.90;;;;;;5013551;28;20427;-50
2022/11/11 09:08:13;;;;;;;17.35;13.60;;;;;;;;;;5008862;28;20073;-51
2022/11/11 09:10:40;;;;;;;16.85;13.27;;;;;;;;;;5008851;28;20042;-52
2022/11/11 09:13:06;;;;;;;15.43;13.65;;;;;;;;;;5009024;28;20384;-51
2022/11/11 09:15:32;;;;;;;15.77;13.43;;;;;;;;;;5009446;28;20057;-51
2022/11/11 09:17:58;;;;;;;16.45;14.05;;;24.20;99.90;;;;;;5026218;28;20042;-51
2022/11/11 09:20:24;;;;;;;27.73;20.88;;;24.20;99.90;;;;;;5010702;28;20029;-50
2022/11/11 09:22:51;;;;;;;14.70;11.82;;;24.50;99.90;;;;;;5029235;28;20057;-51
2022/11/11 09:25:18;;;;;;;17.30;14.23;;;23.60;99.90;;;;;;5011222;28;20058;-50
2022/11/11 09:27:43;;;;;;;18.40;13.85;;;23.90;98.50;;;;;;5003845;28;20041;-51
2022/11/11 09:30:10;;;;;;;16.13;13.00;;;24.20;97.80;;;;;;5022424;28;20042;-52
2022/11/11 09:32:36;;;;;;;16.30;12.52;;;24.00;97.30;;;;;;5007381;28;20053;-51
2022/11/11 09:35:03;;;;;;;16.05;13.38;;;23.00;96.50;;;;;;5011590;28;20164;-50
2022/11/11 09:37:29;;;;;;;17.02;13.50;;;;;;;;;;5010999;28;20057;-52
2022/11/11 09:39:57;;;;;;;19.63;15.18;;;23.50;99.90;;;;;;5009386;28;20084;-51
2022/11/11 09:42:47;;;;;;;19.33;14.27;;;23.20;99.90;;;;;;5012115;28;20061;-51
2022/11/11 09:45:13;;;;;;;18.20;15.90;;;;;;;;;;5008190;28;20036;-51
2022/11/11 09:47:56;;;;;;;16.75;12.70;;;24.20;99.90;;;;;;5010203;28;20121;-51
2022/11/11 09:50:25;;;;;;;14.82;13.05;;;22.80;95.20;;;;;;5011343;28;20029;-51
2022/11/11 09:53:06;;;;;;;16.15;13.90;;;23.10;95.30;;;;;;5011577;28;20034;-50
2022/11/11 09:55:39;;;;;;;17.25;15.45;;;24.20;95.70;;;;;;5012436;28;20064;-50
2022/11/11 09:58:10;;;;;;;16.23;14.45;;;24.70;95.70;;;;;;5039910;28;20034;-51
2022/11/11 10:00:37;;;;;;;17.90;15.67;;;;;;;;;;5010369;28;20512;-53
2022/11/11 10:03:08;;;;;;;16.83;15.05;;;;;;;;;;5004704;28;20092;-51
2022/11/11 10:06:02;;;;;;;16.38;14.85;;;24.80;97.00;;;;;;5009637;28;20452;-52
2022/11/11 10:08:41;;;;;;;18.23;16.42;;;24.90;99.90;;;;;;5008649;28;20052;-52
2022/11/11 10:11:25;;;;;;;23.55;21.63;;;25.60;99.90;;;;;;5021025;28;20038;-52
2022/11/11 10:13:54;;;;;;;17.80;15.63;;;25.90;96.10;;;;;;5010077;28;20045;-51
2022/11/11 10:16:25;;;;;;;15.88;14.15;;;24.90;99.90;;;;;;5006077;28;20135;-51
2022/11/11 10:19:19;;;;;;;18.10;16.10;;;25.00;96.60;;;;;;5008222;28;20393;-51
2022/11/11 10:21:59;;;;;;;16.48;14.75;;;25.10;97.10;;;;;;5006954;28;20038;-51
2022/11/11 10:24:32;;;;;;;16.88;13.23;;;24.00;99.90;;;;;;5023562;28;20111;-50
2022/11/11 10:27:18;;;;;;;17.50;14.05;;;22.00;99.90;;;;;;5011019;28;20100;-51
2022/11/11 10:29:44;;;;;;;16.48;14.75;;;22.30;99.90;;;;;;5025072;28;20108;-51
2022/11/11 10:32:18;;;;;;;15.98;13.38;;;22.60;97.30;;;;;;5024839;28;20029;-52
2022/11/11 10:34:44;;;;;;;17.35;13.82;;;;;;;;;;4994440;28;20077;-51
2022/11/11 10:37:36;;;;;;;18.02;14.13;;;;;;;;;;5027107;28;20026;-50
2022/11/11 10:40:21;;;;;;;16.77;13.60;;;22.00;99.90;;;;;;5029199;28;20088;-50
2022/11/11 10:42:47;;;;;;;18.88;14.93;;;22.20;99.90;;;;;;5027502;28;20041;-51
2022/11/11 10:45:24;;;;;;;12.05;10.80;;;22.60;99.90;;;;;;5025288;28;20141;-50
2022/11/11 10:48:11;;;;;;;16.23;12.93;;;22.60;98.10;;;;;;5029228;28;20034;-51
2022/11/11 10:50:49;;;;;;;16.05;14.15;;;21.60;97.20;;;;;;5029518;28;20079;-51
2022/11/11 10:53:34;;;;;;;17.42;14.30;;;21.80;99.90;;;;;;5029777;28;20539;-51
2022/11/11 10:56:12;;;;;;;16.05;13.00;;;22.00;96.40;;;;;;4979979;28;20497;-51
2022/11/11 10:58:48;;;;;;;17.75;13.90;;;21.80;96.70;;;;;;5011118;28;20038;-51
2022/11/11 11:01:44;;;;;;;17.60;13.13;;;21.20;97.30;;;;;;5010835;28;20044;-51
2022/11/11 11:04:16;;;;;;;21.42;14.30;;;21.30;99.90;;;;;;5007874;28;20049;-50
2022/11/11 11:06:45;;;;;;;20.35;16.45;;;20.30;97.80;;;;;;5008999;28;20029;-51
2022/11/11 11:09:20;;;;;;;22.60;15.75;;;20.20;98.00;;;;;;5011103;28;20041;-50
2022/11/11 11:11:57;;;;;;;17.90;13.85;;;19.10;99.90;;;;;;5010719;28;20066;-50
2022/11/11 11:14:32;;;;;;;16.75;13.70;;;18.40;99.90;;;;;;5010808;28;20141;-50
2022/11/11 11:17:04;;;;;;;19.23;13.75;;;18.40;99.90;;;;;;5006996;28;20478;-50
2022/11/11 11:19:29;;;;;;;;;;;18.50;99.90;;;;;;5007650;28;20038;-50
2022/11/11 11:22:01;;;;;;;16.10;13.27;;;18.10;99.90;;;;;;5009735;28;19910;-50
2022/11/11 11:24:32;;;;;;;19.63;14.30;;;18.00;99.90;;;;;;5009399;28;20038;-50
2022/11/11 11:27:00;;;;;;;18.27;13.90;;;18.60;99.90;;;;;;5042670;28;20060;-50
2022/11/11 11:29:41;;;;;;;15.23;13.38;;;18.60;99.90;;;;;;5007861;28;20124;-51
2022/11/11 11:32:11;;;;;;;18.25;13.32;;;18.30;99.90;;;;;;5001234;28;20038;-50
2022/11/11 11:34:50;;;;;;;18.88;14.00;;;19.10;99.90;;;;;;5011179;28;20049;-51
2022/11/11 11:37:17;;;;;;;18.20;13.30;;;19.10;99.90;;;;;;5005152;28;20030;-50
2022/11/11 11:39:44;;;;;;;19.00;13.63;;;18.80;99.90;;;;;;5007072;28;20038;-50
2022/11/11 11:42:36;;;;;;;18.73;13.38;;;19.20;99.90;;;;;;5007482;28;20061;-50
2022/11/11 11:45:14;;;;;;;15.15;13.20;;;19.00;99.90;;;;;;5008035;28;20494;-51
2022/11/11 11:47:50;;;;;;;16.23;13.07;;;19.30;99.90;;;;;;5009227;28;20029;-50
2022/11/11 11:50:30;;;;;;;19.88;13.65;;;19.40;99.90;;;;;;5003096;28;20493;-50
2022/11/11 11:52:59;;;;;;;19.13;12.90;;;19.10;99.90;;;;;;5010306;28;20362;-51
2022/11/11 11:55:30;;;;;;;20.15;14.35;;;19.30;99.90;;;;;;5010870;28;20486;-50
2022/11/11 11:58:12;;;;;;;18.70;13.38;;;18.90;99.90;;;;;;5006597;28;20061;-50
2022/11/11 12:00:53;;;;;;;20.25;13.35;;;18.80;99.90;;;;;;5007024;28;20487;-50
2022/11/11 12:03:47;;;;;;;18.85;13.93;;;18.70;99.90;;;;;;5006963;28;20504;-50
2022/11/11 12:06:31;;;;;;;19.95;14.20;;;17.80;99.90;;;;;;5004514;28;20021;-50
2022/11/11 12:09:16;;;;;;;22.23;13.45;;;18.00;99.90;;;;;;5027619;28;20050;-50
2022/11/11 12:12:03;;;;;;;19.30;14.60;;;17.40;99.90;;;;;;4991132;28;20045;-50
2022/11/11 12:15:09;;;;;;;17.27;12.68;;;17.70;99.90;;;;;;5009498;28;20042;-50
2022/11/11 12:18:10;;;;;;;19.67;12.77;;;18.20;99.90;;;;;;5007081;28;20117;-50
2022/11/11 12:20:44;;;;;;;16.38;13.20;;;18.50;99.90;;;;;;5000427;28;20089;-51
2022/11/11 12:23:15;;;;;;;18.77;13.55;;;18.50;99.90;;;;;;5005852;28;20080;-49
2022/11/11 12:25:59;;;;;;;15.93;12.93;;;19.10;99.90;;;;;;5008648;28;20061;-50
2022/11/11 12:28:55;;;;;;;17.10;13.00;;;18.90;99.90;;;;;;5009121;28;20385;-50
2022/11/11 12:31:39;;;;;;;21.10;14.27;;;18.70;99.90;;;;;;5007203;28;20037;-50
2022/11/11 12:34:26;;;;;;;21.10;14.55;;;18.80;99.90;;;;;;5030519;28;20054;-50
2022/11/11 12:37:04;;;;;;;17.23;13.02;;;18.60;99.90;;;;;;5003832;28;20038;-50
2022/11/11 12:39:41;;;;;;;19.02;14.27;;;18.40;99.90;;;;;;5008855;28;20096;-50
2022/11/11 12:42:12;;;;;;;17.45;13.70;;;18.50;99.90;;;;;;5010339;28;20041;-50
2022/11/11 12:44:48;;;;;;;20.75;16.15;;;;;;;;;;5010430;28;20037;-50
2022/11/11 12:47:31;;;;;;;16.98;14.13;;;18.50;99.90;;;;;;5028750;28;20037;-50
2022/11/11 12:50:30;;;;;;;21.13;14.05;;;19.10;99.90;;;;;;5046539;28;20042;-50
2022/11/11 12:53:33;;;;;;;21.25;17.67;;;18.90;99.90;;;;;;4994699;28;20048;-49
2022/11/11 12:56:21;;;;;;;24.90;18.27;;;18.40;99.90;;;;;;4959237;28;20086;-50
2022/11/11 12:59:27;;;;;;;40.33;28.00;;;17.90;99.90;;;;;;4970125;28;20038;-50
2022/11/11 13:02:34;;;;;;;50.33;31.80;;;18.00;99.90;;;;;;4916626;29;20040;-49
2022/11/11 13:05:26;;;;;;;28.65;18.70;;;18.60;99.90;;;;;;4916588;29;20567;-50
2022/11/11 13:08:12;;;;;;;20.45;14.60;;;18.60;99.90;;;;;;4916510;29;20556;-50
2022/11/11 13:11:07;;;;;;;20.55;16.98;;;18.40;99.90;;;;;;4916693;29;20122;-50
2022/11/11 13:13:42;;;;;;;18.17;14.52;;;18.40;99.90;;;;;;4862648;29;20132;-49
2022/11/11 13:16:08;;;;;;;22.13;15.02;;;18.30;99.90;;;;;;4844946;29;20054;-50
2022/11/11 13:19:06;;;;;;;21.15;14.25;;;18.20;99.90;;;;;;4852666;29;20575;-50
2022/11/11 13:21:52;;;;;;;21.48;14.63;;;;;;;;;;4831743;29;20050;-49
2022/11/11 13:24:20;;;;;;;20.80;13.00;;;;;;;;;;4832356;29;20046;-50
2022/11/11 13:26:52;;;;;;;17.50;12.88;;;;;;;;;;4828581;29;20038;-50
2022/11/11 13:29:21;;;;;;;17.55;13.23;;;;;;;;;;4823783;29;20047;-49
2022/11/11 13:31:49;;;;;;;19.83;14.15;;;;;;;;;;4813028;29;20511;-50
2022/11/11 13:34:15;;;;;;;23.75;16.38;;;18.60;99.90;;;;;;4809885;29;20492;-50
2022/11/11 13:36:54;;;;;;;17.73;12.98;;;18.60;99.90;;;;;;4808170;29;20060;-50
2022/11/11 13:39:44;;;;;;;18.08;14.38;;;18.40;99.90;;;;;;4870325;29;20393;-50
2022/11/11 13:42:18;;;;;;;16.45;12.30;;;18.40;99.90;;;;;;4890577;29;20048;-49
2022/11/11 13:44:51;;;;;;;20.40;14.52;;;18.40;99.90;;;;;;4884124;29;20040;-50
2022/11/11 13:47:23;;;;;;;18.88;13.07;;;18.40;99.90;;;;;;4881834;29;20366;-50
2022/11/11 13:50:04;;;;;;;19.52;13.15;;;18.20;99.90;;;;;;4919854;29;20926;-49
2022/11/11 13:52:36;;;;;;;19.92;13.23;;;18.40;99.90;;;;;;4954740;29;20072;-49
2022/11/11 13:55:07;;;;;;;17.67;12.88;;;18.70;99.90;;;;;;4951422;29;20051;-49
2022/11/11 13:57:42;;;;;;;17.80;13.23;;;19.20;99.90;;;;;;4966656;28;20034;-50
2022/11/11 14:00:16;;;;;;;19.83;14.07;;;19.00;99.90;;;;;;5002828;28;20354;-49
2022/11/11 14:02:42;;;;;;;16.55;11.85;;;18.10;99.90;;;;;;5012230;28;20509;-48
2022/11/11 14:05:08;;;;;;;16.45;12.48;;;17.70;99.90;;;;;;5007852;28;20046;-56
2022/11/11 14:07:43;;;;;;;13.73;10.23;;;17.80;99.90;;;;;;5004191;28;20521;-49
2022/11/11 14:10:35;;;;;;;16.52;12.52;;;17.70;99.90;;;;;;5009030;28;20107;-51